Smithville, Canada
Current Conditions -  °F | °C
As of 7:00 AM on Friday 24 Oct 2014 (Local Time) from CYSN Reporting Station
Clear Clear  
Wind Chill: 30°   Ceiling: Unl
Heat Index: 36°   Visibility: 15mi
Dew Point: 34°   Wind: 7mph
Humidity: 93%   Direction: 210°SSW
Pressure: 30.05"   Gusts: NA
Location:  43.1°N, 79.53°W
Report Text: CYSN 241100Z 21006KT 15SM SKC 02/01 A3005 RMK SLP179
Loading
Personal Weather Stations






























Interactive Weather Map
Tropical Storm Tracking
New forecast layout! Learn more

10-Day Weather Forecast

Advertisements
Track Severe Weather on mobile